createdAt,value
2022-09-09T00:01:52.488Z,15.70
2022-09-09T00:04:29.872Z,15.60
2022-09-09T00:07:41.070Z,15.70
2022-09-09T00:10:31.134Z,15.60
2022-09-09T00:13:17.016Z,15.70
2022-09-09T00:16:13.538Z,15.70
2022-09-09T00:18:57.227Z,15.60
2022-09-09T00:22:10.275Z,15.80
2022-09-09T00:24:54.511Z,15.60
2022-09-09T00:27:29.922Z,15.60
2022-09-09T00:30:21.388Z,15.70
2022-09-09T00:32:49.833Z,15.90
2022-09-09T00:35:22.225Z,16.00
2022-09-09T00:37:51.039Z,16.00
2022-09-09T00:40:31.910Z,15.90
2022-09-09T00:43:28.448Z,16.00
2022-09-09T00:46:00.931Z,16.00
2022-09-09T00:48:43.489Z,15.90
2022-09-09T00:51:42.052Z,15.90
2022-09-09T00:54:17.215Z,15.90
2022-09-09T00:57:01.265Z,15.70
2022-09-09T00:59:43.799Z,15.70
2022-09-09T01:02:33.614Z,15.70
2022-09-09T01:05:08.428Z,15.80
2022-09-09T01:07:35.264Z,15.80
2022-09-09T01:10:13.095Z,15.90
2022-09-09T01:12:44.742Z,15.80
2022-09-09T01:15:40.001Z,15.90
2022-09-09T01:18:18.028Z,15.80
2022-09-09T01:20:50.706Z,15.70
2022-09-09T01:23:28.443Z,15.70
2022-09-09T01:26:35.655Z,15.70
2022-09-09T01:29:02.443Z,15.70
2022-09-09T01:31:37.650Z,15.60
2022-09-09T01:34:13.443Z,15.60
2022-09-09T01:37:02.032Z,15.70
2022-09-09T01:39:29.195Z,15.60
2022-09-09T01:41:57.106Z,15.60
2022-09-09T01:44:25.381Z,15.70
2022-09-09T01:46:52.238Z,15.70
2022-09-09T01:49:19.829Z,15.70
2022-09-09T01:51:50.833Z,15.70
2022-09-09T01:54:17.859Z,15.70
2022-09-09T01:57:11.821Z,15.60
2022-09-09T02:00:12.588Z,15.60
2022-09-09T02:03:06.445Z,15.50
2022-09-09T02:05:42.019Z,15.50
2022-09-09T02:08:32.484Z,15.40
2022-09-09T02:11:15.842Z,15.60
2022-09-09T02:13:45.242Z,15.60
2022-09-09T02:16:40.152Z,15.50
2022-09-09T02:19:18.071Z,15.60
2022-09-09T02:21:46.660Z,15.60
2022-09-09T02:24:15.463Z,15.70
2022-09-09T02:26:45.250Z,15.60
2022-09-09T02:29:20.742Z,15.70
2022-09-09T02:31:50.151Z,15.70
2022-09-09T02:34:20.629Z,15.70
2022-09-09T02:36:49.189Z,15.50
2022-09-09T02:39:15.888Z,15.60
2022-09-09T02:41:43.388Z,15.60
2022-09-09T02:44:17.924Z,15.60
2022-09-09T02:47:03.326Z,15.60
2022-09-09T02:49:53.230Z,15.70
2022-09-09T02:52:39.790Z,15.80
2022-09-09T02:55:17.242Z,15.90
2022-09-09T02:57:48.480Z,15.90
2022-09-09T03:00:15.668Z,15.90
2022-09-09T03:02:43.259Z,16.00
2022-09-09T03:05:09.980Z,15.90
2022-09-09T03:07:36.656Z,16.00
2022-09-09T03:10:03.779Z,16.10
2022-09-09T03:12:30.440Z,15.90
2022-09-09T03:14:57.134Z,15.90
2022-09-09T03:17:23.944Z,15.90
2022-09-09T03:19:51.058Z,16.00
2022-09-09T03:22:17.689Z,16.00
2022-09-09T03:24:44.320Z,16.00
2022-09-09T03:27:10.961Z,15.90
2022-09-09T03:29:37.670Z,15.90
2022-09-09T03:32:04.497Z,15.90
2022-09-09T03:34:31.816Z,15.90
2022-09-09T03:36:58.424Z,15.90
2022-09-09T03:39:25.016Z,15.90
2022-09-09T03:41:51.735Z,15.90
2022-09-09T03:44:18.342Z,16.00
2022-09-09T03:46:44.972Z,15.90
2022-09-09T03:49:11.552Z,15.90
2022-09-09T03:51:39.322Z,15.90
2022-09-09T03:54:09.086Z,15.80
2022-09-09T03:56:36.435Z,15.90
2022-09-09T03:59:03.783Z,15.90
2022-09-09T04:01:30.511Z,15.90
2022-09-09T04:03:59.064Z,15.80
2022-09-09T04:06:26.869Z,15.90
2022-09-09T04:08:53.574Z,15.80
2022-09-09T04:11:20.866Z,15.90
2022-09-09T04:13:47.535Z,15.80
2022-09-09T04:16:14.617Z,15.70
2022-09-09T04:18:41.710Z,15.60
2022-09-09T04:21:11.097Z,15.70
2022-09-09T04:23:37.731Z,15.70
2022-09-09T04:26:05.038Z,15.80
2022-09-09T04:28:34.571Z,15.70
2022-09-09T04:31:19.595Z,15.70
2022-09-09T04:33:47.496Z,15.60
2022-09-09T04:36:14.864Z,15.50
2022-09-09T04:38:42.965Z,15.60
2022-09-09T04:41:12.169Z,15.60
2022-09-09T04:43:39.599Z,15.60
2022-09-09T04:46:07.085Z,15.60
2022-09-09T04:48:34.193Z,15.50
2022-09-09T04:51:10.376Z,15.50
2022-09-09T04:53:36.995Z,15.50
2022-09-09T04:56:10.972Z,15.60
2022-09-09T04:58:38.293Z,15.70
2022-09-09T05:01:13.837Z,15.70
2022-09-09T05:03:40.865Z,15.70
2022-09-09T05:06:10.633Z,15.70
2022-09-09T05:08:38.713Z,15.70
2022-09-09T05:11:17.985Z,15.70
2022-09-09T05:13:45.133Z,15.70
2022-09-09T05:16:12.616Z,15.70
2022-09-09T05:18:40.513Z,15.70
2022-09-09T05:21:08.009Z,15.70
2022-09-09T05:23:35.322Z,15.60
2022-09-09T05:26:02.737Z,15.70
2022-09-09T05:28:30.212Z,15.80
2022-09-09T05:31:13.613Z,15.70
2022-09-09T05:33:41.933Z,15.70
2022-09-09T05:36:14.875Z,15.80
2022-09-09T05:38:42.157Z,15.90
2022-09-09T05:41:10.652Z,16.00
2022-09-09T05:43:38.298Z,15.80
2022-09-09T05:46:10.198Z,16.00
2022-09-09T05:48:41.940Z,16.10
2022-09-09T05:51:13.517Z,16.10
2022-09-09T05:53:40.357Z,16.00
2022-09-09T05:56:21.117Z,16.10
2022-09-09T05:58:50.996Z,16.10
2022-09-09T06:01:30.240Z,16.20
2022-09-09T06:03:57.406Z,16.30
2022-09-09T06:06:27.081Z,16.10
2022-09-09T06:08:57.154Z,15.90
2022-09-09T06:11:26.236Z,15.90
2022-09-09T06:13:54.888Z,16.10
2022-09-09T06:16:27.372Z,16.10
2022-09-09T06:18:55.881Z,16.10
2022-09-09T06:21:28.665Z,16.20
2022-09-09T06:24:00.202Z,16.30
2022-09-09T06:26:32.803Z,16.40
2022-09-09T06:29:00.473Z,16.20
2022-09-09T06:31:31.190Z,16.20
2022-09-09T06:33:59.632Z,16.50
2022-09-09T06:36:31.996Z,16.50
2022-09-09T06:38:59.217Z,16.50
2022-09-09T06:41:28.378Z,16.50
2022-09-09T06:43:56.452Z,16.50
2022-09-09T06:46:28.754Z,16.50
2022-09-09T06:48:57.058Z,16.50
2022-09-09T06:51:25.164Z,16.50
2022-09-09T06:53:57.265Z,16.50
2022-09-09T06:56:30.115Z,16.50
2022-09-09T06:58:59.410Z,16.60
2022-09-09T07:01:29.150Z,16.70
2022-09-09T07:03:57.514Z,16.90
2022-09-09T07:06:44.763Z,16.90
2022-09-09T07:09:17.152Z,16.80
2022-09-09T07:11:46.517Z,16.90
2022-09-09T07:14:14.828Z,16.90
2022-09-09T07:16:42.870Z,17.00
2022-09-09T07:19:10.429Z,17.00
2022-09-09T07:21:37.069Z,17.00
2022-09-09T07:24:06.081Z,17.10
2022-09-09T07:26:32.802Z,17.10
2022-09-09T07:28:59.643Z,17.20
2022-09-09T07:31:31.692Z,17.30
2022-09-09T07:34:00.608Z,17.30
2022-09-09T07:36:39.582Z,17.40
2022-09-09T07:39:09.972Z,17.40
2022-09-09T07:41:50.048Z,17.40
2022-09-09T07:44:19.460Z,17.50
2022-09-09T07:46:46.879Z,17.40
2022-09-09T07:49:14.072Z,17.50
2022-09-09T07:51:43.469Z,17.50
2022-09-09T07:54:12.714Z,17.50
2022-09-09T07:56:40.486Z,17.60
2022-09-09T07:59:08.075Z,17.70
2022-09-09T08:01:40.119Z,17.70
2022-09-09T08:04:09.555Z,17.90
2022-09-09T08:06:39.066Z,17.80
2022-09-09T08:09:07.356Z,17.70
2022-09-09T08:11:38.726Z,17.80
2022-09-09T08:14:08.557Z,17.90
2022-09-09T08:16:39.364Z,18.10
2022-09-09T08:19:08.139Z,18.00
2022-09-09T08:21:37.652Z,18.00
2022-09-09T08:24:08.374Z,18.10
2022-09-09T08:26:38.188Z,18.30
2022-09-09T08:29:07.579Z,18.30
2022-09-09T08:31:39.882Z,18.40
2022-09-09T08:34:08.262Z,18.40
2022-09-09T08:36:37.746Z,18.40
2022-09-09T08:39:06.200Z,18.50
2022-09-09T08:41:47.919Z,18.60
2022-09-09T08:44:29.695Z,18.70
2022-09-09T08:47:07.793Z,18.90
2022-09-09T08:50:02.269Z,19.10
2022-09-09T08:52:53.371Z,19.00
2022-09-09T08:55:23.846Z,19.10
2022-09-09T08:57:54.577Z,19.40
2022-09-09T09:00:22.231Z,19.50
2022-09-09T09:03:23.891Z,19.40
2022-09-09T09:05:56.323Z,19.40
2022-09-09T09:08:41.994Z,19.50
2022-09-09T09:11:08.630Z,19.50
2022-09-09T09:13:45.776Z,19.50
2022-09-09T09:16:39.899Z,19.80
2022-09-09T09:19:13.800Z,19.90
2022-09-09T09:21:55.647Z,19.90
2022-09-09T09:24:33.574Z,20.00
2022-09-09T09:27:08.178Z,20.10
2022-09-09T09:29:50.574Z,20.20
2022-09-09T09:32:23.898Z,20.40
2022-09-09T09:34:57.680Z,20.40
2022-09-09T09:40:25.409Z,20.30
2022-09-09T09:43:00.625Z,20.30
2022-09-09T09:45:32.492Z,20.30
2022-09-09T09:48:08.001Z,20.40
2022-09-09T09:50:35.512Z,20.50
2022-09-09T09:53:05.491Z,20.70
2022-09-09T09:55:35.866Z,20.90
2022-09-09T09:58:07.070Z,21.10
2022-09-09T10:00:35.998Z,21.20
2022-09-09T10:03:02.770Z,21.10
2022-09-09T10:05:36.044Z,21.00
2022-09-09T10:08:14.355Z,20.90
2022-09-09T10:11:06.526Z,20.70
2022-09-09T10:13:51.352Z,20.70
2022-09-09T10:16:34.758Z,20.50
2022-09-09T10:19:06.532Z,20.40
2022-09-09T10:21:42.235Z,20.30
2022-09-09T10:24:25.531Z,20.10
2022-09-09T10:27:32.833Z,19.90
2022-09-09T10:30:18.444Z,19.60
2022-09-09T10:33:14.486Z,19.40
2022-09-09T10:36:08.077Z,19.20
2022-09-09T10:38:42.677Z,18.70
2022-09-09T10:41:13.459Z,18.10
2022-09-09T10:44:00.560Z,18.20
2022-09-09T10:47:01.779Z,18.20
2022-09-09T10:50:12.950Z,18.00
2022-09-09T10:52:57.243Z,17.90
2022-09-09T10:55:29.945Z,18.00
2022-09-09T10:58:00.844Z,18.30
2022-09-09T11:00:46.783Z,18.60
2022-09-09T11:03:30.251Z,18.90
2022-09-09T11:06:00.849Z,19.10
2022-09-09T11:08:30.479Z,19.50
2022-09-09T11:11:04.911Z,19.80
2022-09-09T11:14:01.473Z,19.90
2022-09-09T11:16:42.864Z,20.00
2022-09-09T11:19:36.975Z,20.30
2022-09-09T11:22:07.763Z,20.50
2022-09-09T11:24:42.671Z,20.60
2022-09-09T11:27:25.880Z,21.00
2022-09-09T11:30:07.883Z,20.90
2022-09-09T11:33:08.513Z,21.20
2022-09-09T11:35:54.115Z,21.30
2022-09-09T11:38:29.792Z,21.30
2022-09-09T11:41:00.374Z,21.40
2022-09-09T11:43:38.945Z,21.60
2022-09-09T11:46:06.236Z,21.90
2022-09-09T11:48:38.622Z,21.90
2022-09-09T11:51:16.692Z,22.00
2022-09-09T11:54:23.829Z,21.70
2022-09-09T11:56:50.493Z,21.60
2022-09-09T11:59:32.469Z,21.80
2022-09-09T12:02:13.305Z,21.80
2022-09-09T12:04:45.738Z,21.70
2022-09-09T12:07:12.391Z,21.70
2022-09-09T12:09:49.290Z,21.90
2022-09-09T12:12:15.938Z,22.10
2022-09-09T12:14:42.534Z,22.10
2022-09-09T12:17:23.781Z,22.20
2022-09-09T12:20:11.910Z,22.30
2022-09-09T12:23:21.587Z,22.50
2022-09-09T12:25:48.219Z,22.50
2022-09-09T12:28:19.766Z,22.40
2022-09-09T12:31:10.858Z,22.30
2022-09-09T12:33:44.126Z,22.40
2022-09-09T12:36:25.034Z,22.40
2022-09-09T12:38:53.240Z,22.50
2022-09-09T12:41:21.048Z,22.60
2022-09-09T12:43:48.550Z,22.70
2022-09-09T12:46:39.215Z,23.00
2022-09-09T12:49:07.415Z,23.00
2022-09-09T12:51:35.138Z,22.50
2022-09-09T12:54:02.117Z,22.60
2022-09-09T12:56:31.923Z,22.60
2022-09-09T12:58:59.572Z,22.40
2022-09-09T13:01:34.518Z,22.00
2022-09-09T13:04:01.827Z,22.10
2022-09-09T13:06:33.223Z,22.20
2022-09-09T13:09:02.628Z,22.20
2022-09-09T13:11:39.232Z,22.40
2022-09-09T13:14:06.886Z,22.40
2022-09-09T13:16:41.852Z,22.30
2022-09-09T13:19:17.374Z,22.30
2022-09-09T13:21:44.345Z,22.40
2022-09-09T13:24:33.008Z,22.40
2022-09-09T13:27:30.947Z,22.60
2022-09-09T13:29:57.849Z,22.90
2022-09-09T13:32:27.845Z,23.00
2022-09-09T13:34:55.806Z,23.20
2022-09-09T13:37:44.166Z,23.40
2022-09-09T13:40:20.564Z,23.50
2022-09-09T13:42:47.298Z,23.80
2022-09-09T13:45:22.561Z,23.90
2022-09-09T13:47:53.239Z,24.10
2022-09-09T13:50:27.580Z,23.70
2022-09-09T13:52:59.185Z,23.60
2022-09-09T13:55:29.664Z,23.30
2022-09-09T13:57:56.281Z,23.70
2022-09-09T14:00:25.050Z,23.90
2022-09-09T14:02:52.230Z,23.80
2022-09-09T14:05:19.681Z,23.70
2022-09-09T14:07:50.092Z,23.50
2022-09-09T14:10:19.322Z,23.40
2022-09-09T14:12:47.616Z,23.30
2022-09-09T14:15:15.386Z,23.10
2022-09-09T14:17:42.232Z,23.00
2022-09-09T14:20:10.208Z,22.90
2022-09-09T14:22:37.709Z,22.90
2022-09-09T14:25:05.196Z,22.90
2022-09-09T14:27:31.826Z,22.70
2022-09-09T14:30:00.937Z,22.50
2022-09-09T14:32:28.280Z,22.60
2022-09-09T14:34:54.960Z,22.80
2022-09-09T14:37:21.694Z,23.10
2022-09-09T14:39:48.549Z,23.10
2022-09-09T14:42:15.314Z,23.10
2022-09-09T14:44:41.937Z,22.90
2022-09-09T14:47:09.782Z,22.80
2022-09-09T14:49:36.922Z,22.40
2022-09-09T14:52:04.553Z,22.40
2022-09-09T14:54:32.253Z,22.10
2022-09-09T14:56:59.733Z,22.00
2022-09-09T14:59:26.442Z,21.90
2022-09-09T15:01:53.986Z,21.90
2022-09-09T15:04:21.336Z,21.90
2022-09-09T15:06:49.305Z,22.00
2022-09-09T15:09:16.516Z,22.00
2022-09-09T15:11:44.522Z,21.90
2022-09-09T15:14:12.188Z,21.90
2022-09-09T15:16:39.883Z,21.90
2022-09-09T15:19:06.510Z,22.10
2022-09-09T15:21:36.317Z,22.10
2022-09-09T15:24:04.809Z,22.10
2022-09-09T15:26:31.467Z,22.10
2022-09-09T15:29:00.350Z,22.10
2022-09-09T15:31:30.042Z,22.10
2022-09-09T15:34:02.220Z,22.00
2022-09-09T15:36:36.546Z,22.00
2022-09-09T15:39:05.948Z,22.10
2022-09-09T15:41:32.738Z,22.20
2022-09-09T15:44:04.008Z,22.20
2022-09-09T15:46:33.152Z,22.10
2022-09-09T15:49:12.591Z,22.20
2022-09-09T15:51:44.836Z,22.10
2022-09-09T15:54:18.372Z,22.10
2022-09-09T15:56:47.404Z,22.20
2022-09-09T15:59:15.728Z,22.10
2022-09-09T16:01:43.164Z,22.10
2022-09-09T16:04:10.609Z,22.10
2022-09-09T16:06:37.553Z,22.00
2022-09-09T16:09:06.655Z,22.00
2022-09-09T16:11:36.931Z,21.90
2022-09-09T16:14:05.018Z,21.80
2022-09-09T16:16:32.005Z,21.60
2022-09-09T16:19:01.091Z,21.50
2022-09-09T16:21:33.768Z,21.50
2022-09-09T16:24:03.266Z,21.40
2022-09-09T16:26:32.277Z,21.50
2022-09-09T16:29:00.438Z,21.40
2022-09-09T16:31:28.461Z,21.30
2022-09-09T16:33:55.188Z,21.30
2022-09-09T16:36:24.246Z,21.30
2022-09-09T16:38:59.712Z,21.20
2022-09-09T16:41:30.433Z,21.10
2022-09-09T16:44:00.196Z,21.20
2022-09-09T16:46:28.803Z,21.20
2022-09-09T16:48:59.279Z,21.10
2022-09-09T16:51:34.039Z,21.00
2022-09-09T16:54:03.492Z,21.00
2022-09-09T16:56:37.707Z,21.00
2022-09-09T16:59:07.310Z,20.80
2022-09-09T17:01:41.547Z,20.80
2022-09-09T17:04:14.703Z,20.80
2022-09-09T17:06:42.368Z,20.70
2022-09-09T17:09:11.182Z,20.60
2022-09-09T17:11:40.035Z,20.70
2022-09-09T17:14:10.175Z,20.60
2022-09-09T17:16:37.691Z,20.40
2022-09-09T17:19:05.099Z,20.30
2022-09-09T17:21:34.297Z,20.30
2022-09-09T17:24:01.170Z,20.10
2022-09-09T17:26:31.038Z,20.00
2022-09-09T17:28:59.762Z,20.10
2022-09-09T17:31:28.559Z,20.00
2022-09-09T17:33:56.366Z,19.90
2022-09-09T17:36:26.369Z,19.90
2022-09-09T17:38:53.950Z,19.80
2022-09-09T17:41:32.615Z,19.90
2022-09-09T17:43:59.924Z,19.90
2022-09-09T17:46:33.457Z,19.90
2022-09-09T17:49:03.173Z,19.90
2022-09-09T17:51:32.094Z,19.80
2022-09-09T17:54:01.206Z,19.70
2022-09-09T17:56:33.842Z,19.70
2022-09-09T17:59:03.883Z,19.70
2022-09-09T18:01:33.672Z,19.60
2022-09-09T18:04:04.345Z,19.60
2022-09-09T18:06:35.455Z,19.60
2022-09-09T18:09:06.213Z,19.30
2022-09-09T18:11:36.489Z,19.40
2022-09-09T18:14:04.812Z,19.20
2022-09-09T18:16:35.980Z,19.30
2022-09-09T18:19:06.190Z,19.30
2022-09-09T18:21:33.690Z,19.20
2022-09-09T18:24:06.160Z,19.30
2022-09-09T18:26:34.188Z,19.20
2022-09-09T18:29:07.816Z,19.00
2022-09-09T18:31:35.274Z,19.00
2022-09-09T18:34:03.681Z,19.00
2022-09-09T18:36:34.102Z,18.90
2022-09-09T18:39:03.499Z,18.80
2022-09-09T18:41:33.077Z,18.70
2022-09-09T18:44:02.714Z,18.70
2022-09-09T18:46:31.415Z,18.60
2022-09-09T18:48:58.361Z,18.60
2022-09-09T18:51:28.258Z,18.40
2022-09-09T18:54:00.580Z,18.30
2022-09-09T18:56:29.459Z,18.30
2022-09-09T18:58:58.878Z,18.20
2022-09-09T19:01:26.557Z,18.20
2022-09-09T19:03:54.313Z,18.10
2022-09-09T19:06:23.788Z,18.10
2022-09-09T19:08:55.405Z,18.00
2022-09-09T19:11:26.347Z,17.90
2022-09-09T19:13:54.353Z,17.90
2022-09-09T19:16:23.141Z,18.00
2022-09-09T19:18:52.500Z,18.00
2022-09-09T19:21:23.017Z,18.00
2022-09-09T19:24:01.648Z,17.80
2022-09-09T19:26:30.314Z,17.70
2022-09-09T19:28:59.232Z,17.60
2022-09-09T19:31:27.943Z,17.60
2022-09-09T19:33:56.234Z,17.60
2022-09-09T19:36:24.579Z,17.60
2022-09-09T19:38:53.912Z,17.50
2022-09-09T19:41:24.493Z,17.40
2022-09-09T19:43:59.368Z,17.50
2022-09-09T19:46:26.361Z,17.50
2022-09-09T19:48:53.073Z,17.60
2022-09-09T19:51:21.812Z,17.50
2022-09-09T19:53:51.751Z,17.50
2022-09-09T19:56:21.805Z,17.40
2022-09-09T19:58:49.022Z,17.40
2022-09-09T20:01:18.218Z,17.50
2022-09-09T20:03:47.768Z,17.40
2022-09-09T20:06:17.155Z,17.30
2022-09-09T20:08:48.534Z,17.50
2022-09-09T20:11:16.113Z,17.50
2022-09-09T20:13:43.789Z,17.50
2022-09-09T20:16:12.243Z,17.50
2022-09-09T20:18:45.334Z,17.60
2022-09-09T20:21:18.087Z,17.70
2022-09-09T20:23:44.733Z,17.70
2022-09-09T20:26:14.062Z,17.80
2022-09-09T20:28:42.209Z,17.80
2022-09-09T20:31:14.498Z,17.70
2022-09-09T20:33:42.392Z,17.70
2022-09-09T20:36:18.347Z,17.80
2022-09-09T20:38:51.411Z,17.80
2022-09-09T20:41:18.617Z,17.70
2022-09-09T20:43:53.365Z,17.70
2022-09-09T20:46:22.705Z,17.60
2022-09-09T20:48:51.326Z,17.70
2022-09-09T20:51:20.317Z,17.60
2022-09-09T20:53:47.483Z,17.70
2022-09-09T20:56:16.936Z,17.60
2022-09-09T20:58:44.015Z,17.60
2022-09-09T21:01:15.580Z,17.50
2022-09-09T21:03:42.803Z,17.40
2022-09-09T21:06:10.172Z,17.50
2022-09-09T21:08:36.811Z,17.40
2022-09-09T21:11:04.749Z,17.40
2022-09-09T21:13:33.304Z,17.40
2022-09-09T21:16:00.490Z,17.30
2022-09-09T21:18:27.412Z,17.30
2022-09-09T21:20:54.281Z,17.40
2022-09-09T21:23:21.885Z,17.30
2022-09-09T21:25:48.922Z,17.30
2022-09-09T21:28:16.509Z,17.40
2022-09-09T21:30:49.077Z,17.30
2022-09-09T21:33:17.429Z,17.40
2022-09-09T21:35:45.035Z,17.30
2022-09-09T21:38:14.162Z,17.30
2022-09-09T21:40:44.704Z,17.30
2022-09-09T21:43:13.288Z,17.30
2022-09-09T21:45:41.285Z,17.20
2022-09-09T21:48:10.996Z,17.20
2022-09-09T21:50:42.376Z,17.30
2022-09-09T21:53:10.092Z,17.20
2022-09-09T21:55:42.423Z,17.20
2022-09-09T21:58:10.023Z,17.10
2022-09-09T22:00:36.770Z,17.20
2022-09-09T22:03:03.753Z,17.20
2022-09-09T22:05:31.506Z,17.20
2022-09-09T22:07:58.610Z,17.10
2022-09-09T22:10:27.089Z,16.80
2022-09-09T22:12:54.143Z,16.90
2022-09-09T22:15:21.113Z,16.90
2022-09-09T22:17:49.019Z,17.00
2022-09-09T22:20:16.005Z,17.20
2022-09-09T22:22:42.658Z,17.20
2022-09-09T22:25:09.816Z,17.20
2022-09-09T22:27:36.515Z,17.20
2022-09-09T22:30:03.772Z,17.10
2022-09-09T22:32:31.136Z,17.20
2022-09-09T22:34:58.149Z,17.20
2022-09-09T22:37:25.314Z,17.00
2022-09-09T22:39:51.961Z,17.10
2022-09-09T22:42:19.259Z,17.00
2022-09-09T22:44:45.876Z,17.00
2022-09-09T22:47:12.480Z,17.00
2022-09-09T22:49:39.128Z,17.00
2022-09-09T22:52:05.821Z,16.90
2022-09-09T22:54:32.432Z,16.90
2022-09-09T22:56:59.048Z,16.90
2022-09-09T22:59:26.476Z,16.90
2022-09-09T23:01:53.200Z,16.90
2022-09-09T23:04:22.761Z,16.80
2022-09-09T23:06:49.366Z,16.80
2022-09-09T23:09:15.982Z,16.80
2022-09-09T23:11:42.591Z,16.90
2022-09-09T23:14:11.578Z,16.80
2022-09-09T23:16:44.215Z,16.80
2022-09-09T23:19:16.593Z,16.80
2022-09-09T23:21:45.149Z,16.70
2022-09-09T23:24:14.069Z,16.50
2022-09-09T23:26:43.337Z,16.30
2022-09-09T23:29:14.581Z,16.50
2022-09-09T23:31:44.860Z,16.50
2022-09-09T23:34:12.992Z,16.50
2022-09-09T23:36:39.694Z,16.60
2022-09-09T23:39:07.570Z,16.70
2022-09-09T23:41:35.632Z,16.90
2022-09-09T23:44:02.570Z,16.70
2022-09-09T23:46:30.526Z,16.70
2022-09-09T23:48:58.295Z,16.70
2022-09-09T23:51:28.072Z,16.60
2022-09-09T23:53:57.047Z,16.70
2022-09-09T23:56:28.892Z,16.80
2022-09-09T23:58:55.989Z,16.50
